createdAt,value
2023-01-19T00:00:30.967Z,96156.28
2023-01-19T00:02:57.353Z,96160.91
2023-01-19T00:05:23.797Z,96157.63
2023-01-19T00:07:50.432Z,96161.94
2023-01-19T00:10:16.857Z,96157.16
2023-01-19T00:12:43.301Z,96152.69
2023-01-19T00:15:09.668Z,96161.31
2023-01-19T00:17:36.055Z,96154.91
2023-01-19T00:20:02.390Z,96152.44
2023-01-19T00:22:28.764Z,96150.47
2023-01-19T00:24:55.098Z,96157.78
2023-01-19T00:27:21.807Z,96158.41
2023-01-19T00:29:48.193Z,96164.06
2023-01-19T00:32:14.769Z,96166.72
2023-01-19T00:34:41.196Z,96158.09
2023-01-19T00:37:07.549Z,96170.66
2023-01-19T00:39:33.929Z,96162.72
2023-01-19T00:42:00.255Z,96160.44
2023-01-19T00:44:26.610Z,96170.69
2023-01-19T00:46:53.649Z,96172.06
2023-01-19T00:49:20.197Z,96177.00
2023-01-19T00:51:46.549Z,96166.66
2023-01-19T00:54:12.902Z,96165.81
2023-01-19T00:56:39.279Z,96168.63
2023-01-19T00:59:05.989Z,96166.88
2023-01-19T01:01:45.417Z,96176.28
2023-01-19T01:04:14.643Z,96174.28
2023-01-19T01:06:41.204Z,96172.97
2023-01-19T01:09:09.906Z,96173.66
2023-01-19T01:11:38.641Z,96168.22
2023-01-19T01:14:05.080Z,96170.06
2023-01-19T01:16:35.082Z,96173.31
2023-01-19T01:19:01.496Z,96180.91
2023-01-19T01:21:27.918Z,96186.16
2023-01-19T01:23:54.537Z,96184.50
2023-01-19T01:26:20.901Z,96185.22
2023-01-19T01:28:47.267Z,96189.22
2023-01-19T01:31:13.737Z,96192.00
2023-01-19T01:33:41.802Z,96192.31
2023-01-19T01:36:08.549Z,96191.81
2023-01-19T01:38:34.965Z,96191.31
2023-01-19T01:41:01.537Z,96196.13
2023-01-19T01:43:27.935Z,96199.13
2023-01-19T01:45:54.427Z,96201.28
2023-01-19T01:48:20.882Z,96201.78
2023-01-19T01:50:47.232Z,96213.97
2023-01-19T01:53:13.597Z,96220.13
2023-01-19T01:55:39.973Z,96223.06
2023-01-19T01:58:06.355Z,96210.81
2023-01-19T02:00:32.775Z,96210.19
2023-01-19T02:03:00.648Z,96213.63
2023-01-19T02:05:27.486Z,96223.41
2023-01-19T02:07:53.932Z,96218.63
2023-01-19T02:10:20.310Z,96221.75
2023-01-19T02:12:46.647Z,96218.94
2023-01-19T02:15:12.976Z,96207.19
2023-01-19T02:17:39.457Z,96215.78
2023-01-19T02:20:05.892Z,96220.41
2023-01-19T02:22:32.323Z,96220.75
2023-01-19T02:24:58.709Z,96215.81
2023-01-19T02:27:25.052Z,96218.81
2023-01-19T02:29:51.501Z,96218.34
2023-01-19T02:32:17.917Z,96227.44
2023-01-19T02:34:44.328Z,96232.72
2023-01-19T02:37:10.735Z,96228.44
2023-01-19T02:39:37.173Z,96227.75
2023-01-19T02:42:04.703Z,96227.56
2023-01-19T02:44:31.078Z,96220.94
2023-01-19T02:46:57.435Z,96219.09
2023-01-19T02:49:23.761Z,96227.22
2023-01-19T02:51:50.180Z,96240.25
2023-01-19T02:54:16.502Z,96228.06
2023-01-19T02:56:42.844Z,96225.41
2023-01-19T02:59:09.553Z,96225.88
2023-01-19T03:01:37.703Z,96227.38
2023-01-19T03:04:04.217Z,96230.66
2023-01-19T03:06:30.586Z,96230.47
2023-01-19T03:08:57.019Z,96231.31
2023-01-19T03:11:23.440Z,96231.97
2023-01-19T03:13:49.810Z,96236.63
2023-01-19T03:16:16.253Z,96237.59
2023-01-19T03:18:42.696Z,96229.66
2023-01-19T03:21:09.030Z,96236.63
2023-01-19T03:23:35.514Z,96243.25
2023-01-19T03:26:15.088Z,96241.75
2023-01-19T03:28:41.475Z,96241.22
2023-01-19T03:31:11.923Z,96242.56
2023-01-19T03:33:38.309Z,96236.63
2023-01-19T03:36:04.740Z,96250.38
2023-01-19T03:38:31.128Z,96250.53
2023-01-19T03:40:57.536Z,96253.19
2023-01-19T03:43:24.580Z,96259.47
2023-01-19T03:45:51.390Z,96261.47
2023-01-19T03:48:17.732Z,96264.25
2023-01-19T03:50:44.056Z,96260.63
2023-01-19T03:53:10.472Z,96269.41
2023-01-19T03:55:40.383Z,96267.56
2023-01-19T03:58:06.963Z,96263.94
2023-01-19T04:00:33.348Z,96267.22
2023-01-19T04:03:00.014Z,96270.03
2023-01-19T04:05:26.738Z,96273.50
2023-01-19T04:07:53.133Z,96278.63
2023-01-19T04:10:19.657Z,96280.28
2023-01-19T04:12:45.995Z,96286.25
2023-01-19T04:15:12.438Z,96289.72
2023-01-19T04:17:38.757Z,96295.66
2023-01-19T04:20:05.084Z,96291.03
2023-01-19T04:22:31.415Z,96291.66
2023-01-19T04:24:57.824Z,96290.84
2023-01-19T04:27:24.196Z,96294.31
2023-01-19T04:29:50.587Z,96293.50
2023-01-19T04:32:16.989Z,96290.19
2023-01-19T04:34:43.360Z,96284.25
2023-01-19T04:37:09.778Z,96291.53
2023-01-19T04:39:36.135Z,96294.34
2023-01-19T04:42:02.514Z,96294.50
2023-01-19T04:44:28.896Z,96296.50
2023-01-19T04:46:55.297Z,96294.19
2023-01-19T04:49:21.725Z,96299.66
2023-01-19T04:51:48.055Z,96299.66
2023-01-19T04:54:14.426Z,96298.16
2023-01-19T04:56:40.783Z,96297.34
2023-01-19T04:59:07.276Z,96300.63
2023-01-19T05:01:33.776Z,96301.44
2023-01-19T05:04:00.255Z,96297.00
2023-01-19T05:06:26.665Z,96303.28
2023-01-19T05:08:55.456Z,96306.75
2023-01-19T05:11:21.878Z,96298.16
2023-01-19T05:13:51.535Z,96297.53
2023-01-19T05:16:18.201Z,96297.81
2023-01-19T05:18:44.711Z,96300.63
2023-01-19T05:21:11.526Z,96306.09
2023-01-19T05:23:37.953Z,96316.03
2023-01-19T05:26:04.333Z,96317.19
2023-01-19T05:28:33.486Z,96318.16
2023-01-19T05:31:00.038Z,96317.53
2023-01-19T05:33:26.471Z,96310.75
2023-01-19T05:35:52.904Z,96307.28
2023-01-19T05:38:29.382Z,96313.72
2023-01-19T05:41:00.673Z,96311.25
2023-01-19T05:43:27.103Z,96318.31
2023-01-19T05:45:53.456Z,96324.63
2023-01-19T05:48:19.783Z,96322.47
2023-01-19T05:50:46.260Z,96326.28
2023-01-19T05:53:15.275Z,96329.91
2023-01-19T05:55:41.595Z,96330.88
2023-01-19T05:58:08.000Z,96331.06
2023-01-19T06:00:34.357Z,96337.16
2023-01-19T06:03:18.974Z,96331.88
2023-01-19T06:05:45.456Z,96323.94
2023-01-19T06:08:11.875Z,96318.00
2023-01-19T06:10:38.378Z,96333.19
2023-01-19T06:13:04.726Z,96334.22
2023-01-19T06:15:31.134Z,96335.19
2023-01-19T06:17:57.697Z,96332.56
2023-01-19T06:20:24.093Z,96335.53
2023-01-19T06:22:50.536Z,96339.16
2023-01-19T06:25:16.902Z,96336.69
2023-01-19T06:27:43.233Z,96338.81
2023-01-19T06:30:09.611Z,96348.56
2023-01-19T06:32:35.987Z,96355.84
2023-01-19T06:35:02.426Z,96350.72
2023-01-19T06:37:28.845Z,96365.41
2023-01-19T06:39:56.757Z,96362.13
2023-01-19T06:42:24.239Z,96359.47
2023-01-19T06:44:50.681Z,96359.31
2023-01-19T06:47:17.114Z,96355.69
2023-01-19T06:49:43.490Z,96357.31
2023-01-19T06:52:10.379Z,96354.84
2023-01-19T06:54:39.971Z,96358.81
2023-01-19T06:57:10.163Z,96354.53
2023-01-19T06:59:36.653Z,96364.28
2023-01-19T07:02:26.610Z,96370.72
2023-01-19T07:04:55.581Z,96370.69
2023-01-19T07:07:24.554Z,96376.13
2023-01-19T07:09:53.813Z,96378.13
2023-01-19T07:12:20.601Z,96380.25
2023-01-19T07:14:47.109Z,96389.69
2023-01-19T07:17:13.566Z,96382.44
2023-01-19T07:19:40.011Z,96379.28
2023-01-19T07:22:06.503Z,96382.28
2023-01-19T07:24:32.952Z,96379.78
2023-01-19T07:26:59.372Z,96376.47
2023-01-19T07:29:25.907Z,96376.66
2023-01-19T07:31:59.513Z,96384.59
2023-01-19T07:34:25.952Z,96379.94
2023-01-19T07:36:52.442Z,96381.25
2023-01-19T07:39:20.033Z,96379.94
2023-01-19T07:41:46.609Z,96382.25
2023-01-19T07:44:13.359Z,96375.19
2023-01-19T07:46:39.765Z,96378.16
2023-01-19T07:49:06.999Z,96380.13
2023-01-19T07:51:33.392Z,96378.47
2023-01-19T07:53:59.837Z,96389.72
2023-01-19T07:56:26.318Z,96391.03
2023-01-19T07:58:52.747Z,96388.06
2023-01-19T08:01:19.232Z,96390.53
2023-01-19T08:03:45.704Z,96388.88
2023-01-19T08:06:12.047Z,96396.81
2023-01-19T08:08:40.841Z,96395.31
2023-01-19T08:11:07.260Z,96405.91
2023-01-19T08:13:33.820Z,96409.72
2023-01-19T08:16:00.360Z,96408.03
2023-01-19T08:18:26.910Z,96419.56
2023-01-19T08:20:54.674Z,96418.72
2023-01-19T08:23:25.496Z,96417.41
2023-01-19T08:25:52.134Z,96418.56
2023-01-19T08:28:21.947Z,96418.09
2023-01-19T08:30:48.546Z,96428.03
2023-01-19T08:33:18.778Z,96427.19
2023-01-19T08:35:46.200Z,96423.56
2023-01-19T08:38:12.566Z,96428.38
2023-01-19T08:40:38.934Z,96426.38
2023-01-19T08:43:05.359Z,96432.97
2023-01-19T08:45:31.806Z,96438.09
2023-01-19T08:47:58.199Z,96433.31
2023-01-19T08:50:24.608Z,96426.03
2023-01-19T08:52:51.062Z,96433.28
2023-01-19T08:55:17.544Z,96432.63
2023-01-19T08:57:46.788Z,96423.56
2023-01-19T09:00:13.317Z,96429.97
2023-01-19T09:02:39.958Z,96440.06
2023-01-19T09:05:06.397Z,96438.41
2023-01-19T09:07:35.781Z,96436.59
2023-01-19T09:10:02.339Z,96439.53
2023-01-19T09:12:28.764Z,96439.88
2023-01-19T09:14:55.153Z,96441.03
2023-01-19T09:20:01.792Z,96442.50
2023-01-19T09:22:28.231Z,96449.63
2023-01-19T09:24:54.669Z,96458.88
2023-01-19T09:27:21.114Z,96454.94
2023-01-19T09:29:51.062Z,96463.19
2023-01-19T09:32:17.495Z,96470.66
2023-01-19T09:34:43.891Z,96471.16
2023-01-19T09:37:12.657Z,96477.94
2023-01-19T09:39:39.101Z,96472.97
2023-01-19T09:42:05.564Z,96468.38
2023-01-19T09:44:32.002Z,96477.47
2023-01-19T09:46:58.587Z,96477.31
2023-01-19T09:49:24.960Z,96475.50
2023-01-19T09:51:51.393Z,96479.47
2023-01-19T09:54:17.810Z,96470.22
2023-01-19T09:56:44.255Z,96467.25
2023-01-19T09:59:10.804Z,96483.94
2023-01-19T10:01:37.411Z,96480.94
2023-01-19T10:04:05.813Z,96479.25
2023-01-19T10:06:32.454Z,96474.81
2023-01-19T10:08:58.963Z,96478.94
2023-01-19T10:11:29.131Z,96479.78
2023-01-19T10:13:58.695Z,96477.34
2023-01-19T10:16:25.124Z,96479.31
2023-01-19T10:18:52.217Z,96479.69
2023-01-19T10:21:18.673Z,96474.22
2023-01-19T10:23:47.099Z,96468.44
2023-01-19T10:26:13.592Z,96463.78
2023-01-19T10:28:40.008Z,96458.84
2023-01-19T10:31:06.696Z,96464.81
2023-01-19T10:33:33.304Z,96458.03
2023-01-19T10:38:39.947Z,96455.03
2023-01-19T10:41:06.362Z,96462.16
2023-01-19T10:43:32.977Z,96453.88
2023-01-19T10:45:59.531Z,96468.28
2023-01-19T10:48:29.369Z,96457.53
2023-01-19T10:50:58.071Z,96462.84
2023-01-19T10:53:25.813Z,96462.16
2023-01-19T10:55:53.465Z,96452.25
2023-01-19T10:58:21.004Z,96445.13
2023-01-19T11:00:47.483Z,96445.47
2023-01-19T11:03:13.978Z,96443.00
2023-01-19T11:05:49.319Z,96439.00
2023-01-19T11:08:16.710Z,96431.72
2023-01-19T11:10:43.108Z,96426.59
2023-01-19T11:13:09.770Z,96425.63
2023-01-19T11:15:36.153Z,96428.59
2023-01-19T11:18:02.643Z,96424.13
2023-01-19T11:20:29.062Z,96426.28
2023-01-19T11:22:55.486Z,96429.59
2023-01-19T11:25:21.835Z,96422.97
2023-01-19T11:27:48.209Z,96425.94
2023-01-19T11:30:14.709Z,96424.44
2023-01-19T11:32:41.154Z,96421.47
2023-01-19T11:35:07.685Z,96419.78
2023-01-19T11:37:35.118Z,96412.53
2023-01-19T11:40:01.565Z,96407.53
2023-01-19T11:42:27.933Z,96411.38
2023-01-19T11:45:12.725Z,96406.03
2023-01-19T11:47:39.205Z,96399.75
2023-01-19T11:50:07.922Z,96407.34
2023-01-19T11:55:14.880Z,96397.72
2023-01-19T11:57:42.100Z,96394.09
2023-01-19T12:00:08.586Z,96389.59
2023-01-19T12:02:35.085Z,96390.56
2023-01-19T12:05:01.601Z,96392.69
2023-01-19T12:07:27.979Z,96387.56
2023-01-19T12:09:54.516Z,96385.88
2023-01-19T12:12:21.549Z,96384.63
2023-01-19T12:14:48.004Z,96375.19
2023-01-19T12:17:14.808Z,96376.50
2023-01-19T12:19:41.442Z,96374.13
2023-01-19T12:22:07.921Z,96369.16
2023-01-19T12:24:34.425Z,96367.81
2023-01-19T12:27:00.904Z,96375.41
2023-01-19T12:29:27.305Z,96371.59
2023-01-19T12:31:53.860Z,96372.25
2023-01-19T12:34:20.465Z,96371.59
2023-01-19T12:36:46.932Z,96375.09
2023-01-19T12:39:13.408Z,96377.22
2023-01-19T12:41:39.960Z,96378.72
2023-01-19T12:44:06.479Z,96373.75
2023-01-19T12:46:33.065Z,96363.19
2023-01-19T12:48:59.552Z,96367.13
2023-01-19T12:51:37.356Z,96366.75
2023-01-19T12:54:03.997Z,96366.75
2023-01-19T12:56:30.587Z,96364.09
2023-01-19T12:58:57.834Z,96359.47
2023-01-19T13:01:24.316Z,96358.63
2023-01-19T13:03:50.782Z,96366.22
2023-01-19T13:06:19.837Z,96364.09
2023-01-19T13:08:46.234Z,96365.59
2023-01-19T13:11:12.671Z,96360.25
2023-01-19T13:13:39.132Z,96365.03
2023-01-19T13:16:05.623Z,96366.34
2023-01-19T13:18:34.808Z,96363.88
2023-01-19T13:21:01.341Z,96360.19
2023-01-19T13:23:30.464Z,96352.88
2023-01-19T13:25:56.889Z,96356.19
2023-01-19T13:28:23.322Z,96355.38
2023-01-19T13:30:49.848Z,96344.25
2023-01-19T13:33:16.355Z,96341.91
2023-01-19T13:35:45.484Z,96351.25
2023-01-19T13:38:11.988Z,96349.72
2023-01-19T13:40:38.449Z,96346.22
2023-01-19T13:43:04.836Z,96344.75
2023-01-19T13:45:31.243Z,96332.81
2023-01-19T13:47:57.799Z,96335.34
2023-01-19T13:50:24.214Z,96334.53
2023-01-19T13:52:50.697Z,96341.50
2023-01-19T13:55:17.109Z,96333.91
2023-01-19T13:57:46.326Z,96340.72
2023-01-19T14:00:13.167Z,96335.25
2023-01-19T14:02:40.983Z,96339.22
2023-01-19T14:05:07.554Z,96339.47
2023-01-19T14:07:36.326Z,96334.84
2023-01-19T14:10:03.037Z,96334.31
2023-01-19T14:12:29.536Z,96328.00
2023-01-19T14:14:56.019Z,96330.19
2023-01-19T14:17:22.446Z,96329.63
2023-01-19T14:19:48.948Z,96323.22
2023-01-19T14:22:15.417Z,96328.06
2023-01-19T14:24:41.827Z,96325.19
2023-01-19T14:27:08.316Z,96328.09
2023-01-19T14:29:34.728Z,96323.47
2023-01-19T14:32:01.148Z,96314.97
2023-01-19T14:34:27.516Z,96321.50
2023-01-19T14:36:53.963Z,96308.53
2023-01-19T14:39:20.429Z,96316.13
2023-01-19T14:41:46.939Z,96306.09
2023-01-19T14:44:13.589Z,96310.41
2023-01-19T14:46:41.328Z,96302.81
2023-01-19T14:49:07.769Z,96304.22
2023-01-19T14:51:34.136Z,96301.88
2023-01-19T14:54:00.567Z,96298.63
2023-01-19T14:56:26.990Z,96305.81
2023-01-19T14:58:53.349Z,96298.50
2023-01-19T15:01:19.852Z,96293.50
2023-01-19T15:03:46.319Z,96293.13
2023-01-19T15:06:12.720Z,96298.56
2023-01-19T15:08:39.194Z,96296.19
2023-01-19T15:11:05.983Z,96292.13
2023-01-19T15:13:37.513Z,96299.16
2023-01-19T15:16:04.257Z,96297.00
2023-01-19T15:18:30.748Z,96291.50
2023-01-19T15:20:57.506Z,96284.84
2023-01-19T15:23:23.919Z,96290.88
2023-01-19T15:25:50.404Z,96292.31
2023-01-19T15:28:16.846Z,96288.72
2023-01-19T15:30:43.693Z,96287.28
2023-01-19T15:33:10.172Z,96285.09
2023-01-19T15:35:36.601Z,96279.16
2023-01-19T15:38:07.808Z,96286.94
2023-01-19T15:40:34.311Z,96276.81
2023-01-19T15:43:00.728Z,96281.31
2023-01-19T15:45:27.253Z,96277.41
2023-01-19T15:47:53.769Z,96273.94
2023-01-19T15:50:20.198Z,96272.28
2023-01-19T15:52:46.698Z,96267.72
2023-01-19T15:55:13.078Z,96272.38
2023-01-19T15:57:39.592Z,96271.34
2023-01-19T16:00:06.031Z,96271.34
2023-01-19T16:02:32.492Z,96273.38
2023-01-19T16:04:58.953Z,96270.91
2023-01-19T16:07:25.513Z,96263.31
2023-01-19T16:09:51.847Z,96272.44
2023-01-19T16:12:18.327Z,96264.66
2023-01-19T16:14:44.804Z,96273.59
2023-01-19T16:17:11.299Z,96264.00
2023-01-19T16:19:37.785Z,96251.94
2023-01-19T16:22:04.225Z,96256.75
2023-01-19T16:24:30.622Z,96252.16
2023-01-19T16:26:56.975Z,96252.16
2023-01-19T16:29:23.384Z,96249.69
2023-01-19T16:31:49.869Z,96250.88
2023-01-19T16:34:16.364Z,96247.72
2023-01-19T16:36:42.815Z,96242.59
2023-01-19T16:39:14.575Z,96246.91
2023-01-19T16:41:43.981Z,96245.59
2023-01-19T16:44:10.496Z,96236.19
2023-01-19T16:46:39.300Z,96240.84
2023-01-19T16:49:05.743Z,96238.38
2023-01-19T16:51:32.199Z,96232.59
2023-01-19T16:53:59.752Z,96241.69
2023-01-19T16:56:28.949Z,96232.13
2023-01-19T16:58:55.514Z,96232.31
2023-01-19T17:01:28.048Z,96226.34
2023-01-19T17:04:03.857Z,96223.06
2023-01-19T17:06:30.323Z,96225.88
2023-01-19T17:08:56.743Z,96228.69
2023-01-19T17:11:23.250Z,96226.38
2023-01-19T17:13:49.692Z,96232.13
2023-01-19T17:16:16.114Z,96235.06
2023-01-19T17:18:42.656Z,96238.88
2023-01-19T17:21:09.126Z,96236.09
2023-01-19T17:23:35.499Z,96234.44
2023-01-19T17:26:01.939Z,96236.72
2023-01-19T17:28:29.349Z,96242.50
2023-01-19T17:30:55.904Z,96233.72
2023-01-19T17:33:24.580Z,96232.72
2023-01-19T17:35:51.011Z,96229.09
2023-01-19T17:38:17.461Z,96233.53
2023-01-19T17:40:44.180Z,96225.94
2023-01-19T17:43:13.273Z,96225.78
2023-01-19T17:45:42.726Z,96221.47
2023-01-19T17:48:10.812Z,96220.41
2023-01-19T17:50:37.217Z,96208.47
2023-01-19T17:53:03.655Z,96206.97
2023-01-19T17:55:34.988Z,96212.28
2023-01-19T17:58:01.474Z,96204.97
2023-01-19T18:03:08.252Z,96213.09
2023-01-19T18:05:34.653Z,96212.81
2023-01-19T18:08:01.267Z,96213.81
2023-01-19T18:10:27.633Z,96204.53
2023-01-19T18:12:54.382Z,96203.03
2023-01-19T18:15:21.175Z,96199.56
2023-01-19T18:17:49.332Z,96203.03
2023-01-19T18:20:16.172Z,96204.38
2023-01-19T18:22:42.559Z,96197.59
2023-01-19T18:27:49.289Z,96201.09
2023-01-19T18:30:15.859Z,96196.28
2023-01-19T18:32:42.525Z,96192.19
2023-01-19T18:35:08.937Z,96192.19
2023-01-19T18:37:35.282Z,96184.75
2023-01-19T18:40:08.861Z,96184.91
2023-01-19T18:42:35.567Z,96190.91
2023-01-19T18:45:01.966Z,96180.69
2023-01-19T18:50:08.758Z,96178.84
2023-01-19T18:52:35.216Z,96176.38
2023-01-19T18:55:01.605Z,96177.19
2023-01-19T18:57:27.963Z,96172.91
2023-01-19T18:59:54.324Z,96171.59
2023-01-19T19:02:20.747Z,96169.31
2023-01-19T19:04:47.225Z,96174.09
2023-01-19T19:07:13.557Z,96169.16
2023-01-19T19:09:40.023Z,96165.53
2023-01-19T19:12:06.568Z,96164.03
2023-01-19T19:14:33.004Z,96166.69
2023-01-19T19:16:59.338Z,96164.22
2023-01-19T19:19:25.672Z,96166.38
2023-01-19T19:21:52.042Z,96161.06
2023-01-19T19:24:18.398Z,96155.16
2023-01-19T19:26:48.893Z,96155.16
2023-01-19T19:29:15.281Z,96153.66
2023-01-19T19:31:42.057Z,96151.19
2023-01-19T19:34:08.452Z,96152.34
2023-01-19T19:36:34.913Z,96153.16
2023-01-19T19:39:01.265Z,96152.34
2023-01-19T19:41:27.670Z,96153.69
2023-01-19T19:43:54.158Z,96158.16
2023-01-19T19:46:20.540Z,96153.69
2023-01-19T19:48:46.959Z,96159.16
2023-01-19T19:51:18.411Z,96165.78
2023-01-19T19:53:45.439Z,96169.56
2023-01-19T19:56:11.841Z,96168.28
2023-01-19T19:58:38.216Z,96163.19
2023-01-19T20:01:04.916Z,96166.63
2023-01-19T20:03:31.387Z,96171.75
2023-01-19T20:06:00.504Z,96175.38
2023-01-19T20:08:27.010Z,96177.22
2023-01-19T20:10:54.585Z,96171.09
2023-01-19T20:13:21.005Z,96171.91
2023-01-19T20:15:47.544Z,96171.94
2023-01-19T20:18:13.932Z,96168.47
2023-01-19T20:20:40.286Z,96165.00
2023-01-19T20:23:06.633Z,96166.31
2023-01-19T20:25:33.084Z,96169.31
2023-01-19T20:27:59.539Z,96168.66
2023-01-19T20:30:25.914Z,96172.47
2023-01-19T20:32:52.279Z,96176.25
2023-01-19T20:35:18.626Z,96174.47
2023-01-19T20:37:45.226Z,96176.13
2023-01-19T20:40:11.555Z,96171.31
2023-01-19T20:42:38.067Z,96176.59
2023-01-19T20:45:04.477Z,96176.78
2023-01-19T20:47:33.949Z,96178.44
2023-01-19T20:50:03.069Z,96182.22
2023-01-19T20:52:29.643Z,96181.88
2023-01-19T20:54:56.011Z,96182.56
2023-01-19T20:57:22.407Z,96180.22
2023-01-19T20:59:48.789Z,96181.41
2023-01-19T21:02:15.812Z,96184.69
2023-01-19T21:04:42.261Z,96188.31
2023-01-19T21:07:08.652Z,96193.94
2023-01-19T21:09:35.092Z,96190.31
2023-01-19T21:12:01.659Z,96188.16
2023-01-19T21:14:28.050Z,96189.34
2023-01-19T21:16:54.393Z,96197.56
2023-01-19T21:19:20.749Z,96194.13
2023-01-19T21:21:47.209Z,96186.19
2023-01-19T21:24:13.542Z,96200.09
2023-01-19T21:26:39.880Z,96195.28
2023-01-19T21:29:06.993Z,96194.94
2023-01-19T21:31:33.510Z,96197.91
2023-01-19T21:33:59.999Z,96197.75
2023-01-19T21:36:26.360Z,96194.47
2023-01-19T21:38:52.784Z,96197.91
2023-01-19T21:41:19.141Z,96197.59
2023-01-19T21:43:45.601Z,96199.41
2023-01-19T21:46:12.063Z,96205.88
2023-01-19T21:48:38.496Z,96214.63
2023-01-19T21:51:04.875Z,96222.53
2023-01-19T21:53:31.202Z,96224.38
2023-01-19T21:55:57.732Z,96226.84
2023-01-19T21:58:24.116Z,96231.16
2023-01-19T22:00:53.014Z,96236.72
2023-01-19T22:03:19.609Z,96236.91
2023-01-19T22:05:46.100Z,96246.66
2023-01-19T22:08:12.650Z,96244.81
2023-01-19T22:10:49.356Z,96252.13
2023-01-19T22:13:16.035Z,96256.72
2023-01-19T22:15:43.528Z,96261.19
2023-01-19T22:18:10.027Z,96262.97
2023-01-19T22:20:36.398Z,96273.72
2023-01-19T22:23:06.170Z,96281.63
2023-01-19T22:25:32.615Z,96272.09
2023-01-19T22:27:59.043Z,96269.44
2023-01-19T22:30:27.995Z,96276.88
2023-01-19T22:32:56.420Z,96282.31
2023-01-19T22:35:22.875Z,96283.63
2023-01-19T22:37:50.353Z,96284.31
2023-01-19T22:40:18.180Z,96274.91
2023-01-19T22:42:44.540Z,96280.00
2023-01-19T22:45:11.398Z,96297.50
2023-01-19T22:47:38.091Z,96303.94
2023-01-19T22:50:04.488Z,96298.50
2023-01-19T22:52:31.926Z,96298.00
2023-01-19T22:54:58.686Z,96296.31
2023-01-19T22:57:25.038Z,96298.84
2023-01-19T22:59:51.826Z,96296.66
2023-01-19T23:02:20.680Z,96289.06
2023-01-19T23:04:49.407Z,96289.41
2023-01-19T23:07:15.981Z,96298.31
2023-01-19T23:09:42.383Z,96296.63
2023-01-19T23:12:09.246Z,96299.44
2023-01-19T23:14:38.136Z,96294.31
2023-01-19T23:17:04.608Z,96300.28
2023-01-19T23:19:30.944Z,96302.09
2023-01-19T23:21:57.435Z,96300.91
2023-01-19T23:24:23.830Z,96302.75
2023-01-19T23:26:52.124Z,96314.97
2023-01-19T23:29:18.600Z,96306.19
2023-01-19T23:31:45.048Z,96307.22
2023-01-19T23:34:11.471Z,96306.38
2023-01-19T23:36:37.945Z,96306.53
2023-01-19T23:39:04.379Z,96302.09
2023-01-19T23:41:30.718Z,96297.97
2023-01-19T23:43:57.268Z,96299.75
2023-01-19T23:46:23.690Z,96297.97
2023-01-19T23:48:50.351Z,96306.53
2023-01-19T23:51:16.740Z,96306.03
2023-01-19T23:56:33.533Z,96305.66
2023-01-19T23:58:59.954Z,96308.78
